sensor_id;sensor_type;location;lat;lon;timestamp;P1;durP1;ratioP1;P2;durP2;ratioP2
64674;SDS011;51090;51.512;11.332;2022-10-01T00:01:39;6.38;;;3.30;;
64674;SDS011;51090;51.512;11.332;2022-10-01T00:04:04;6.28;;;3.00;;
64674;SDS011;51090;51.512;11.332;2022-10-01T00:06:30;6.20;;;3.00;;
64674;SDS011;51090;51.512;11.332;2022-10-01T00:08:56;6.90;;;3.13;;
64674;SDS011;51090;51.512;11.332;2022-10-01T00:11:23;5.38;;;3.15;;
64674;SDS011;51090;51.512;11.332;2022-10-01T00:13:50;7.05;;;3.00;;
64674;SDS011;51090;51.512;11.332;2022-10-01T00:16:21;5.15;;;2.95;;
64674;SDS011;51090;51.512;11.332;2022-10-01T00:18:50;6.63;;;3.08;;
64674;SDS011;51090;51.512;11.332;2022-10-01T00:21:20;6.95;;;3.10;;
64674;SDS011;51090;51.512;11.332;2022-10-01T00:23:53;6.35;;;3.20;;
64674;SDS011;51090;51.512;11.332;2022-10-01T00:26:25;6.65;;;3.05;;
64674;SDS011;51090;51.512;11.332;2022-10-01T00:28:58;7.78;;;3.00;;
64674;SDS011;51090;51.512;11.332;2022-10-01T00:31:30;8.73;;;3.03;;
64674;SDS011;51090;51.512;11.332;2022-10-01T00:33:57;4.40;;;2.25;;
64674;SDS011;51090;51.512;11.332;2022-10-01T00:36:24;6.57;;;3.13;;
64674;SDS011;51090;51.512;11.332;2022-10-01T00:38:51;6.85;;;2.90;;
64674;SDS011;51090;51.512;11.332;2022-10-01T00:41:18;7.90;;;3.08;;
64674;SDS011;51090;51.512;11.332;2022-10-01T00:43:45;4.93;;;2.38;;
64674;SDS011;51090;51.512;11.332;2022-10-01T00:51:44;5.85;;;2.45;;
64674;SDS011;51090;51.512;11.332;2022-10-01T00:54:19;5.97;;;2.70;;
64674;SDS011;51090;51.512;11.332;2022-10-01T00:56:50;5.95;;;2.00;;
64674;SDS011;51090;51.512;11.332;2022-10-01T00:59:21;5.38;;;2.58;;
64674;SDS011;51090;51.512;11.332;2022-10-01T01:01:47;5.57;;;2.25;;
64674;SDS011;51090;51.512;11.332;2022-10-01T01:04:13;4.47;;;2.13;;
64674;SDS011;51090;51.512;11.332;2022-10-01T01:06:48;4.40;;;2.63;;
64674;SDS011;51090;51.512;11.332;2022-10-01T01:09:22;4.88;;;2.55;;
64674;SDS011;51090;51.512;11.332;2022-10-01T01:15:38;6.82;;;3.05;;
64674;SDS011;51090;51.512;11.332;2022-10-01T01:18:31;4.00;;;2.50;;
64674;SDS011;51090;51.512;11.332;2022-10-01T01:21:24;4.93;;;2.38;;
64674;SDS011;51090;51.512;11.332;2022-10-01T01:30:12;6.32;;;2.88;;
64674;SDS011;51090;51.512;11.332;2022-10-01T01:35:21;4.53;;;2.70;;
64674;SDS011;51090;51.512;11.332;2022-10-01T01:37:57;5.97;;;2.92;;
64674;SDS011;51090;51.512;11.332;2022-10-01T01:40:26;5.97;;;2.90;;
64674;SDS011;51090;51.512;11.332;2022-10-01T01:42:56;5.60;;;2.78;;
64674;SDS011;51090;51.512;11.332;2022-10-01T01:45:25;5.75;;;3.22;;
64674;SDS011;51090;51.512;11.332;2022-10-01T01:47:54;5.20;;;2.42;;
64674;SDS011;51090;51.512;11.332;2022-10-01T01:50:23;7.22;;;2.85;;
64674;SDS011;51090;51.512;11.332;2022-10-01T01:52:52;4.85;;;3.22;;
64674;SDS011;51090;51.512;11.332;2022-10-01T01:55:19;6.15;;;2.67;;
64674;SDS011;51090;51.512;11.332;2022-10-01T01:57:49;8.48;;;2.90;;
64674;SDS011;51090;51.512;11.332;2022-10-01T02:00:15;5.97;;;3.30;;
64674;SDS011;51090;51.512;11.332;2022-10-01T02:02:51;6.07;;;3.13;;
64674;SDS011;51090;51.512;11.332;2022-10-01T02:05:22;6.63;;;3.22;;
64674;SDS011;51090;51.512;11.332;2022-10-01T02:10:58;6.45;;;3.30;;
64674;SDS011;51090;51.512;11.332;2022-10-01T02:13:56;5.55;;;3.22;;
64674;SDS011;51090;51.512;11.332;2022-10-01T02:16:46;4.60;;;2.65;;
64674;SDS011;51090;51.512;11.332;2022-10-01T02:22:01;6.75;;;3.42;;
64674;SDS011;51090;51.512;11.332;2022-10-01T02:24:35;9.13;;;3.88;;
64674;SDS011;51090;51.512;11.332;2022-10-01T02:27:12;5.38;;;2.92;;
64674;SDS011;51090;51.512;11.332;2022-10-01T02:29:47;6.60;;;3.47;;
64674;SDS011;51090;51.512;11.332;2022-10-01T02:32:14;6.68;;;3.08;;
64674;SDS011;51090;51.512;11.332;2022-10-01T02:34:42;7.75;;;3.25;;
64674;SDS011;51090;51.512;11.332;2022-10-01T02:37:11;5.93;;;2.80;;
64674;SDS011;51090;51.512;11.332;2022-10-01T02:39:37;9.95;;;3.50;;
64674;SDS011;51090;51.512;11.332;2022-10-01T02:42:05;7.57;;;2.95;;
64674;SDS011;51090;51.512;11.332;2022-10-01T02:44:36;6.15;;;3.38;;
64674;SDS011;51090;51.512;11.332;2022-10-01T02:49:58;7.57;;;3.13;;
64674;SDS011;51090;51.512;11.332;2022-10-01T02:52:31;7.22;;;3.33;;
64674;SDS011;51090;51.512;11.332;2022-10-01T02:55:15;6.80;;;3.50;;
64674;SDS011;51090;51.512;11.332;2022-10-01T02:57:52;7.07;;;2.65;;
64674;SDS011;51090;51.512;11.332;2022-10-01T03:00:19;6.07;;;3.42;;
64674;SDS011;51090;51.512;11.332;2022-10-01T03:02:45;6.20;;;2.95;;
64674;SDS011;51090;51.512;11.332;2022-10-01T03:05:12;9.70;;;3.28;;
64674;SDS011;51090;51.512;11.332;2022-10-01T03:07:39;5.68;;;3.47;;
64674;SDS011;51090;51.512;11.332;2022-10-01T03:10:06;7.40;;;3.17;;
64674;SDS011;51090;51.512;11.332;2022-10-01T03:12:33;7.00;;;3.22;;
64674;SDS011;51090;51.512;11.332;2022-10-01T03:14:59;5.47;;;3.00;;
64674;SDS011;51090;51.512;11.332;2022-10-01T03:17:26;6.13;;;3.15;;
64674;SDS011;51090;51.512;11.332;2022-10-01T03:19:52;6.47;;;2.97;;
64674;SDS011;51090;51.512;11.332;2022-10-01T03:22:19;9.00;;;3.78;;
64674;SDS011;51090;51.512;11.332;2022-10-01T03:24:47;8.90;;;3.83;;
64674;SDS011;51090;51.512;11.332;2022-10-01T03:27:14;7.38;;;3.85;;
64674;SDS011;51090;51.512;11.332;2022-10-01T03:29:40;8.50;;;4.40;;
64674;SDS011;51090;51.512;11.332;2022-10-01T03:32:05;9.50;;;4.50;;
64674;SDS011;51090;51.512;11.332;2022-10-01T03:34:31;6.57;;;3.95;;
64674;SDS011;51090;51.512;11.332;2022-10-01T03:36:57;7.80;;;4.03;;
64674;SDS011;51090;51.512;11.332;2022-10-01T03:39:22;8.68;;;3.60;;
64674;SDS011;51090;51.512;11.332;2022-10-01T03:41:48;6.93;;;3.95;;
64674;SDS011;51090;51.512;11.332;2022-10-01T03:44:14;7.05;;;3.63;;
64674;SDS011;51090;51.512;11.332;2022-10-01T03:46:40;7.25;;;3.83;;
64674;SDS011;51090;51.512;11.332;2022-10-01T03:49:06;6.75;;;3.53;;
64674;SDS011;51090;51.512;11.332;2022-10-01T03:51:31;7.80;;;3.13;;
64674;SDS011;51090;51.512;11.332;2022-10-01T03:53:57;8.15;;;3.03;;
64674;SDS011;51090;51.512;11.332;2022-10-01T03:56:23;6.70;;;3.08;;
64674;SDS011;51090;51.512;11.332;2022-10-01T03:58:50;10.82;;;3.60;;
64674;SDS011;51090;51.512;11.332;2022-10-01T04:01:16;6.75;;;3.30;;
64674;SDS011;51090;51.512;11.332;2022-10-01T04:03:42;6.88;;;3.17;;
64674;SDS011;51090;51.512;11.332;2022-10-01T04:06:08;7.30;;;2.95;;
64674;SDS011;51090;51.512;11.332;2022-10-01T04:08:35;9.48;;;3.50;;
64674;SDS011;51090;51.512;11.332;2022-10-01T04:11:02;7.28;;;3.95;;
64674;SDS011;51090;51.512;11.332;2022-10-01T04:13:29;6.35;;;3.25;;
64674;SDS011;51090;51.512;11.332;2022-10-01T04:15:56;7.05;;;3.75;;
64674;SDS011;51090;51.512;11.332;2022-10-01T04:18:21;6.85;;;3.40;;
64674;SDS011;51090;51.512;11.332;2022-10-01T04:20:48;6.18;;;3.40;;
64674;SDS011;51090;51.512;11.332;2022-10-01T04:23:13;6.60;;;2.97;;
64674;SDS011;51090;51.512;11.332;2022-10-01T04:25:39;8.05;;;3.00;;
64674;SDS011;51090;51.512;11.332;2022-10-01T04:28:06;6.05;;;3.10;;
64674;SDS011;51090;51.512;11.332;2022-10-01T04:30:36;6.60;;;3.22;;
64674;SDS011;51090;51.512;11.332;2022-10-01T04:33:05;9.20;;;3.42;;
64674;SDS011;51090;51.512;11.332;2022-10-01T04:35:31;8.77;;;4.10;;
64674;SDS011;51090;51.512;11.332;2022-10-01T04:37:58;9.27;;;4.68;;
64674;SDS011;51090;51.512;11.332;2022-10-01T04:40:31;8.20;;;4.18;;
64674;SDS011;51090;51.512;11.332;2022-10-01T04:43:00;8.38;;;4.70;;
64674;SDS011;51090;51.512;11.332;2022-10-01T04:45:28;10.48;;;5.20;;
64674;SDS011;51090;51.512;11.332;2022-10-01T04:47:54;9.90;;;5.22;;
64674;SDS011;51090;51.512;11.332;2022-10-01T04:50:21;8.95;;;4.65;;
64674;SDS011;51090;51.512;11.332;2022-10-01T04:52:49;9.27;;;4.93;;
64674;SDS011;51090;51.512;11.332;2022-10-01T04:55:16;10.68;;;5.03;;
64674;SDS011;51090;51.512;11.332;2022-10-01T04:57:43;8.63;;;4.90;;
64674;SDS011;51090;51.512;11.332;2022-10-01T05:00:10;10.15;;;5.53;;
64674;SDS011;51090;51.512;11.332;2022-10-01T05:02:42;9.35;;;4.95;;
64674;SDS011;51090;51.512;11.332;2022-10-01T05:05:13;11.82;;;5.45;;
64674;SDS011;51090;51.512;11.332;2022-10-01T05:07:41;7.93;;;4.82;;
64674;SDS011;51090;51.512;11.332;2022-10-01T05:10:07;10.23;;;6.18;;
64674;SDS011;51090;51.512;11.332;2022-10-01T05:12:37;10.25;;;5.18;;
64674;SDS011;51090;51.512;11.332;2022-10-01T05:15:03;9.98;;;5.45;;
64674;SDS011;51090;51.512;11.332;2022-10-01T05:17:29;9.77;;;5.28;;
64674;SDS011;51090;51.512;11.332;2022-10-01T05:19:58;9.68;;;5.68;;
64674;SDS011;51090;51.512;11.332;2022-10-01T05:22:25;10.88;;;5.30;;
64674;SDS011;51090;51.512;11.332;2022-10-01T05:24:51;10.45;;;5.68;;
64674;SDS011;51090;51.512;11.332;2022-10-01T05:27:17;9.18;;;4.80;;
64674;SDS011;51090;51.512;11.332;2022-10-01T05:29:43;12.90;;;6.03;;
64674;SDS011;51090;51.512;11.332;2022-10-01T05:32:10;10.38;;;6.45;;
64674;SDS011;51090;51.512;11.332;2022-10-01T05:34:36;7.63;;;3.65;;
64674;SDS011;51090;51.512;11.332;2022-10-01T05:37:03;6.18;;;3.53;;
64674;SDS011;51090;51.512;11.332;2022-10-01T05:39:29;11.68;;;5.78;;
64674;SDS011;51090;51.512;11.332;2022-10-01T05:41:56;12.00;;;5.97;;
64674;SDS011;51090;51.512;11.332;2022-10-01T05:44:23;12.07;;;5.93;;
64674;SDS011;51090;51.512;11.332;2022-10-01T05:46:49;11.77;;;6.15;;
64674;SDS011;51090;51.512;11.332;2022-10-01T05:49:17;10.02;;;5.30;;
64674;SDS011;51090;51.512;11.332;2022-10-01T05:51:43;11.77;;;5.57;;
64674;SDS011;51090;51.512;11.332;2022-10-01T05:54:09;13.35;;;7.03;;
64674;SDS011;51090;51.512;11.332;2022-10-01T05:56:36;11.10;;;5.88;;
64674;SDS011;51090;51.512;11.332;2022-10-01T05:59:02;12.07;;;6.18;;
64674;SDS011;51090;51.512;11.332;2022-10-01T06:01:29;16.90;;;8.18;;
64674;SDS011;51090;51.512;11.332;2022-10-01T06:03:58;13.13;;;7.40;;
64674;SDS011;51090;51.512;11.332;2022-10-01T06:06:25;12.07;;;6.68;;
64674;SDS011;51090;51.512;11.332;2022-10-01T06:08:52;10.50;;;6.25;;
64674;SDS011;51090;51.512;11.332;2022-10-01T06:11:18;11.88;;;5.95;;
64674;SDS011;51090;51.512;11.332;2022-10-01T06:13:47;12.23;;;6.03;;
64674;SDS011;51090;51.512;11.332;2022-10-01T06:16:13;12.43;;;5.95;;
64674;SDS011;51090;51.512;11.332;2022-10-01T06:18:39;9.73;;;6.00;;
64674;SDS011;51090;51.512;11.332;2022-10-01T06:21:06;11.35;;;6.07;;
64674;SDS011;51090;51.512;11.332;2022-10-01T06:23:33;18.83;;;9.23;;
64674;SDS011;51090;51.512;11.332;2022-10-01T06:26:00;12.38;;;6.72;;
64674;SDS011;51090;51.512;11.332;2022-10-01T06:28:30;14.45;;;7.85;;
64674;SDS011;51090;51.512;11.332;2022-10-01T06:30:59;13.32;;;8.30;;
64674;SDS011;51090;51.512;11.332;2022-10-01T06:33:26;18.15;;;9.32;;
64674;SDS011;51090;51.512;11.332;2022-10-01T06:35:52;14.50;;;8.27;;
64674;SDS011;51090;51.512;11.332;2022-10-01T06:38:18;15.82;;;8.60;;
64674;SDS011;51090;51.512;11.332;2022-10-01T06:40:56;24.50;;;11.40;;
64674;SDS011;51090;51.512;11.332;2022-10-01T06:43:24;20.38;;;10.07;;
64674;SDS011;51090;51.512;11.332;2022-10-01T06:45:52;24.63;;;11.77;;
64674;SDS011;51090;51.512;11.332;2022-10-01T06:48:19;16.40;;;8.85;;
64674;SDS011;51090;51.512;11.332;2022-10-01T06:50:46;14.25;;;8.30;;
64674;SDS011;51090;51.512;11.332;2022-10-01T06:53:15;14.45;;;8.20;;
64674;SDS011;51090;51.512;11.332;2022-10-01T06:55:42;15.25;;;7.22;;
64674;SDS011;51090;51.512;11.332;2022-10-01T07:00:41;11.23;;;5.70;;
64674;SDS011;51090;51.512;11.332;2022-10-01T07:03:08;11.50;;;6.75;;
64674;SDS011;51090;51.512;11.332;2022-10-01T07:05:44;12.27;;;6.80;;
64674;SDS011;51090;51.512;11.332;2022-10-01T07:08:11;9.60;;;5.72;;
64674;SDS011;51090;51.512;11.332;2022-10-01T07:10:38;12.52;;;6.38;;
64674;SDS011;51090;51.512;11.332;2022-10-01T07:13:05;11.02;;;5.50;;
64674;SDS011;51090;51.512;11.332;2022-10-01T07:15:41;9.98;;;5.30;;
64674;SDS011;51090;51.512;11.332;2022-10-01T07:18:08;7.90;;;4.28;;
64674;SDS011;51090;51.512;11.332;2022-10-01T07:20:35;6.32;;;4.50;;
64674;SDS011;51090;51.512;11.332;2022-10-01T07:23:04;11.98;;;6.35;;
64674;SDS011;51090;51.512;11.332;2022-10-01T07:25:32;9.38;;;4.68;;
64674;SDS011;51090;51.512;11.332;2022-10-01T07:27:59;10.77;;;5.30;;
64674;SDS011;51090;51.512;11.332;2022-10-01T07:30:28;6.28;;;4.13;;
64674;SDS011;51090;51.512;11.332;2022-10-01T07:32:55;8.65;;;3.95;;
64674;SDS011;51090;51.512;11.332;2022-10-01T07:35:21;6.28;;;3.88;;
64674;SDS011;51090;51.512;11.332;2022-10-01T07:37:47;6.20;;;3.80;;
64674;SDS011;51090;51.512;11.332;2022-10-01T07:40:14;7.25;;;3.38;;
64674;SDS011;51090;51.512;11.332;2022-10-01T07:42:42;6.30;;;3.55;;
64674;SDS011;51090;51.512;11.332;2022-10-01T07:45:18;6.32;;;3.67;;
64674;SDS011;51090;51.512;11.332;2022-10-01T07:47:50;6.63;;;2.90;;
64674;SDS011;51090;51.512;11.332;2022-10-01T07:50:33;9.93;;;3.55;;
64674;SDS011;51090;51.512;11.332;2022-10-01T07:52:59;6.93;;;3.35;;
64674;SDS011;51090;51.512;11.332;2022-10-01T07:55:26;8.32;;;3.78;;
64674;SDS011;51090;51.512;11.332;2022-10-01T07:57:55;5.57;;;2.83;;
64674;SDS011;51090;51.512;11.332;2022-10-01T08:00:24;5.28;;;3.15;;
64674;SDS011;51090;51.512;11.332;2022-10-01T08:02:51;7.82;;;3.25;;
64674;SDS011;51090;51.512;11.332;2022-10-01T08:05:20;5.60;;;3.55;;
64674;SDS011;51090;51.512;11.332;2022-10-01T08:07:49;7.47;;;4.40;;
64674;SDS011;51090;51.512;11.332;2022-10-01T08:10:16;6.65;;;3.92;;
64674;SDS011;51090;51.512;11.332;2022-10-01T08:12:44;8.32;;;4.30;;
64674;SDS011;51090;51.512;11.332;2022-10-01T08:15:11;9.48;;;5.05;;
64674;SDS011;51090;51.512;11.332;2022-10-01T08:17:39;11.35;;;6.47;;
64674;SDS011;51090;51.512;11.332;2022-10-01T08:20:06;16.23;;;8.75;;
64674;SDS011;51090;51.512;11.332;2022-10-01T08:22:34;9.50;;;4.82;;
64674;SDS011;51090;51.512;11.332;2022-10-01T08:25:00;9.52;;;3.55;;
64674;SDS011;51090;51.512;11.332;2022-10-01T08:27:27;6.25;;;3.70;;
64674;SDS011;51090;51.512;11.332;2022-10-01T08:29:52;9.00;;;4.80;;
64674;SDS011;51090;51.512;11.332;2022-10-01T08:32:19;6.05;;;3.53;;
64674;SDS011;51090;51.512;11.332;2022-10-01T08:34:45;4.65;;;2.60;;
64674;SDS011;51090;51.512;11.332;2022-10-01T08:37:12;7.70;;;4.22;;
64674;SDS011;51090;51.512;11.332;2022-10-01T08:39:38;7.15;;;4.10;;
64674;SDS011;51090;51.512;11.332;2022-10-01T08:42:18;5.38;;;3.17;;
64674;SDS011;51090;51.512;11.332;2022-10-01T08:45:13;5.45;;;2.65;;
64674;SDS011;51090;51.512;11.332;2022-10-01T08:48:06;6.68;;;3.03;;
64674;SDS011;51090;51.512;11.332;2022-10-01T08:50:51;4.78;;;2.22;;
64674;SDS011;51090;51.512;11.332;2022-10-01T08:53:28;5.90;;;2.22;;
64674;SDS011;51090;51.512;11.332;2022-10-01T08:58:49;3.53;;;1.75;;
64674;SDS011;51090;51.512;11.332;2022-10-01T09:01:26;4.05;;;1.90;;
64674;SDS011;51090;51.512;11.332;2022-10-01T09:03:53;6.25;;;2.72;;
64674;SDS011;51090;51.512;11.332;2022-10-01T09:06:24;6.18;;;2.50;;
64674;SDS011;51090;51.512;11.332;2022-10-01T09:08:56;4.13;;;2.05;;
64674;SDS011;51090;51.512;11.332;2022-10-01T09:14:40;4.07;;;2.15;;
64674;SDS011;51090;51.512;11.332;2022-10-01T09:20:22;3.60;;;1.85;;
64674;SDS011;51090;51.512;11.332;2022-10-01T09:25:55;2.53;;;1.60;;
64674;SDS011;51090;51.512;11.332;2022-10-01T09:28:26;3.40;;;1.52;;
64674;SDS011;51090;51.512;11.332;2022-10-01T09:34:14;4.28;;;1.90;;
64674;SDS011;51090;51.512;11.332;2022-10-01T09:36:59;3.50;;;2.00;;
64674;SDS011;51090;51.512;11.332;2022-10-01T09:42:51;4.55;;;2.25;;
64674;SDS011;51090;51.512;11.332;2022-10-01T09:45:17;4.32;;;2.03;;
64674;SDS011;51090;51.512;11.332;2022-10-01T09:47:47;6.82;;;3.22;;
64674;SDS011;51090;51.512;11.332;2022-10-01T09:50:19;8.32;;;3.85;;
64674;SDS011;51090;51.512;11.332;2022-10-01T09:52:55;6.68;;;3.38;;
64674;SDS011;51090;51.512;11.332;2022-10-01T09:57:57;3.97;;;2.05;;
64674;SDS011;51090;51.512;11.332;2022-10-01T10:00:28;8.25;;;3.60;;
64674;SDS011;51090;51.512;11.332;2022-10-01T10:02:55;4.88;;;2.25;;
64674;SDS011;51090;51.512;11.332;2022-10-01T10:05:27;9.82;;;4.55;;
64674;SDS011;51090;51.512;11.332;2022-10-01T10:08:14;10.02;;;4.05;;
64674;SDS011;51090;51.512;11.332;2022-10-01T10:10:48;22.58;;;7.18;;
64674;SDS011;51090;51.512;11.332;2022-10-01T10:13:26;31.60;;;8.73;;
64674;SDS011;51090;51.512;11.332;2022-10-01T10:16:14;15.40;;;6.68;;
64674;SDS011;51090;51.512;11.332;2022-10-01T10:18:57;13.60;;;5.15;;
64674;SDS011;51090;51.512;11.332;2022-10-01T10:21:29;8.55;;;3.95;;
64674;SDS011;51090;51.512;11.332;2022-10-01T10:24:03;14.70;;;4.93;;
64674;SDS011;51090;51.512;11.332;2022-10-01T10:26:50;31.80;;;11.57;;
64674;SDS011;51090;51.512;11.332;2022-10-01T10:29:26;35.65;;;15.05;;
64674;SDS011;51090;51.512;11.332;2022-10-01T10:31:56;29.00;;;15.05;;
64674;SDS011;51090;51.512;11.332;2022-10-01T10:34:34;15.25;;;7.25;;
64674;SDS011;51090;51.512;11.332;2022-10-01T10:37:12;22.33;;;9.13;;
64674;SDS011;51090;51.512;11.332;2022-10-01T10:39:41;19.90;;;7.80;;
64674;SDS011;51090;51.512;11.332;2022-10-01T10:42:14;28.50;;;13.38;;
64674;SDS011;51090;51.512;11.332;2022-10-01T10:44:40;16.83;;;7.80;;
64674;SDS011;51090;51.512;11.332;2022-10-01T10:47:09;9.63;;;3.97;;
64674;SDS011;51090;51.512;11.332;2022-10-01T10:52:32;6.13;;;2.58;;
64674;SDS011;51090;51.512;11.332;2022-10-01T10:55:15;5.13;;;2.20;;
64674;SDS011;51090;51.512;11.332;2022-10-01T10:57:43;3.83;;;1.55;;
64674;SDS011;51090;51.512;11.332;2022-10-01T11:00:17;2.45;;;1.20;;
64674;SDS011;51090;51.512;11.332;2022-10-01T11:02:52;6.70;;;3.30;;
64674;SDS011;51090;51.512;11.332;2022-10-01T11:05:24;3.58;;;1.70;;
64674;SDS011;51090;51.512;11.332;2022-10-01T11:07:54;2.88;;;1.35;;
64674;SDS011;51090;51.512;11.332;2022-10-01T11:13:17;1.88;;;0.80;;
64674;SDS011;51090;51.512;11.332;2022-10-01T11:31:20;5.03;;;1.58;;
64674;SDS011;51090;51.512;11.332;2022-10-01T11:36:38;3.83;;;1.30;;
64674;SDS011;51090;51.512;11.332;2022-10-01T11:39:17;4.10;;;2.03;;
64674;SDS011;51090;51.512;11.332;2022-10-01T11:41:49;3.75;;;1.35;;
64674;SDS011;51090;51.512;11.332;2022-10-01T11:44:34;2.22;;;0.98;;
64674;SDS011;51090;51.512;11.332;2022-10-01T11:47:12;2.72;;;1.05;;
64674;SDS011;51090;51.512;11.332;2022-10-01T11:55:37;2.50;;;1.05;;
64674;SDS011;51090;51.512;11.332;2022-10-01T11:58:28;2.92;;;1.20;;
64674;SDS011;51090;51.512;11.332;2022-10-01T12:03:53;1.92;;;0.88;;
64674;SDS011;51090;51.512;11.332;2022-10-01T12:06:42;3.97;;;1.38;;
64674;SDS011;51090;51.512;11.332;2022-10-01T12:12:37;9.75;;;3.00;;
64674;SDS011;51090;51.512;11.332;2022-10-01T12:17:48;1.77;;;1.13;;
64674;SDS011;51090;51.512;11.332;2022-10-01T12:20:31;1.15;;;0.68;;
64674;SDS011;51090;51.512;11.332;2022-10-01T12:23:17;1.70;;;0.80;;
64674;SDS011;51090;51.512;11.332;2022-10-01T12:28:50;3.10;;;1.52;;
64674;SDS011;51090;51.512;11.332;2022-10-01T12:37:24;2.70;;;1.30;;
64674;SDS011;51090;51.512;11.332;2022-10-01T12:40:34;1.88;;;1.02;;
64674;SDS011;51090;51.512;11.332;2022-10-01T12:49:20;2.20;;;0.95;;
64674;SDS011;51090;51.512;11.332;2022-10-01T12:52:03;1.83;;;1.08;;
64674;SDS011;51090;51.512;11.332;2022-10-01T12:57:57;1.70;;;1.00;;
64674;SDS011;51090;51.512;11.332;2022-10-01T13:00:37;2.08;;;1.30;;
64674;SDS011;51090;51.512;11.332;2022-10-01T13:03:43;2.08;;;1.17;;
64674;SDS011;51090;51.512;11.332;2022-10-01T13:06:34;3.20;;;1.20;;
64674;SDS011;51090;51.512;11.332;2022-10-01T13:15:30;4.03;;;1.55;;
64674;SDS011;51090;51.512;11.332;2022-10-01T13:26:26;1.63;;;0.93;;
64674;SDS011;51090;51.512;11.332;2022-10-01T13:31:56;2.75;;;1.20;;
64674;SDS011;51090;51.512;11.332;2022-10-01T13:35:18;1.92;;;1.10;;
64674;SDS011;51090;51.512;11.332;2022-10-01T13:37:45;6.28;;;1.30;;
64674;SDS011;51090;51.512;11.332;2022-10-01T13:40:28;3.67;;;1.30;;
64674;SDS011;51090;51.512;11.332;2022-10-01T13:45:53;2.70;;;1.20;;
64674;SDS011;51090;51.512;11.332;2022-10-01T13:48:24;3.13;;;1.23;;
64674;SDS011;51090;51.512;11.332;2022-10-01T13:51:06;2.40;;;1.10;;
64674;SDS011;51090;51.512;11.332;2022-10-01T13:53:45;2.00;;;1.00;;
64674;SDS011;51090;51.512;11.332;2022-10-01T13:56:29;5.25;;;1.98;;
64674;SDS011;51090;51.512;11.332;2022-10-01T13:59:00;4.50;;;1.80;;
64674;SDS011;51090;51.512;11.332;2022-10-01T14:01:28;5.18;;;1.83;;
64674;SDS011;51090;51.512;11.332;2022-10-01T14:07:12;2.80;;;1.20;;
64674;SDS011;51090;51.512;11.332;2022-10-01T14:09:48;2.03;;;1.00;;
64674;SDS011;51090;51.512;11.332;2022-10-01T14:12:28;1.73;;;1.23;;
64674;SDS011;51090;51.512;11.332;2022-10-01T14:15:16;4.18;;;1.40;;
64674;SDS011;51090;51.512;11.332;2022-10-01T14:18:11;1.17;;;0.80;;
64674;SDS011;51090;51.512;11.332;2022-10-01T14:20:58;4.00;;;1.80;;
64674;SDS011;51090;51.512;11.332;2022-10-01T14:23:32;5.35;;;1.77;;
64674;SDS011;51090;51.512;11.332;2022-10-01T14:26:38;2.55;;;1.20;;
64674;SDS011;51090;51.512;11.332;2022-10-01T14:36:56;2.78;;;1.90;;
64674;SDS011;51090;51.512;11.332;2022-10-01T14:39:26;4.60;;;2.45;;
64674;SDS011;51090;51.512;11.332;2022-10-01T14:41:54;3.30;;;2.20;;
64674;SDS011;51090;51.512;11.332;2022-10-01T14:44:28;1.83;;;1.25;;
64674;SDS011;51090;51.512;11.332;2022-10-01T14:47:10;2.00;;;1.20;;
64674;SDS011;51090;51.512;11.332;2022-10-01T14:49:41;2.20;;;1.23;;
64674;SDS011;51090;51.512;11.332;2022-10-01T14:52:17;4.03;;;1.30;;
64674;SDS011;51090;51.512;11.332;2022-10-01T14:57:30;4.63;;;1.92;;
64674;SDS011;51090;51.512;11.332;2022-10-01T15:00:13;3.28;;;1.30;;
64674;SDS011;51090;51.512;11.332;2022-10-01T15:02:43;3.63;;;2.20;;
64674;SDS011;51090;51.512;11.332;2022-10-01T15:05:16;1.83;;;1.00;;
64674;SDS011;51090;51.512;11.332;2022-10-01T15:07:55;6.05;;;2.20;;
64674;SDS011;51090;51.512;11.332;2022-10-01T15:10:23;4.57;;;1.40;;
64674;SDS011;51090;51.512;11.332;2022-10-01T15:12:52;3.03;;;0.93;;
64674;SDS011;51090;51.512;11.332;2022-10-01T15:17:55;1.05;;;0.80;;
64674;SDS011;51090;51.512;11.332;2022-10-01T15:20:21;1.60;;;0.82;;
64674;SDS011;51090;51.512;11.332;2022-10-01T15:22:47;1.38;;;0.77;;
64674;SDS011;51090;51.512;11.332;2022-10-01T15:25:19;1.93;;;0.70;;
64674;SDS011;51090;51.512;11.332;2022-10-01T15:27:53;1.85;;;0.80;;
64674;SDS011;51090;51.512;11.332;2022-10-01T15:30:20;1.15;;;0.90;;
64674;SDS011;51090;51.512;11.332;2022-10-01T15:32:48;2.97;;;1.13;;
64674;SDS011;51090;51.512;11.332;2022-10-01T15:35:18;1.90;;;0.80;;
64674;SDS011;51090;51.512;11.332;2022-10-01T15:37:47;2.80;;;0.70;;
64674;SDS011;51090;51.512;11.332;2022-10-01T15:40:25;4.05;;;1.42;;
64674;SDS011;51090;51.512;11.332;2022-10-01T15:43:10;1.88;;;0.90;;
64674;SDS011;51090;51.512;11.332;2022-10-01T15:45:48;2.58;;;1.05;;
64674;SDS011;51090;51.512;11.332;2022-10-01T15:51:59;4.05;;;1.15;;
64674;SDS011;51090;51.512;11.332;2022-10-01T15:54:46;2.80;;;1.15;;
64674;SDS011;51090;51.512;11.332;2022-10-01T15:57:23;3.15;;;1.48;;
64674;SDS011;51090;51.512;11.332;2022-10-01T15:59:51;1.75;;;0.90;;
64674;SDS011;51090;51.512;11.332;2022-10-01T16:02:21;2.05;;;0.80;;
64674;SDS011;51090;51.512;11.332;2022-10-01T16:04:51;1.85;;;0.90;;
64674;SDS011;51090;51.512;11.332;2022-10-01T16:07:29;2.45;;;1.00;;
64674;SDS011;51090;51.512;11.332;2022-10-01T16:09:59;2.30;;;1.00;;
64674;SDS011;51090;51.512;11.332;2022-10-01T16:12:57;2.47;;;1.00;;
64674;SDS011;51090;51.512;11.332;2022-10-01T16:15:27;2.20;;;1.05;;
64674;SDS011;51090;51.512;11.332;2022-10-01T16:17:58;1.90;;;1.00;;
64674;SDS011;51090;51.512;11.332;2022-10-01T16:20:31;11.77;;;4.80;;
64674;SDS011;51090;51.512;11.332;2022-10-01T16:31:38;1.35;;;0.80;;
64674;SDS011;51090;51.512;11.332;2022-10-01T16:34:11;0.60;;;0.50;;
64674;SDS011;51090;51.512;11.332;2022-10-01T16:36:39;0.65;;;0.45;;
64674;SDS011;51090;51.512;11.332;2022-10-01T16:39:05;0.88;;;0.55;;
64674;SDS011;51090;51.512;11.332;2022-10-01T16:41:31;1.08;;;0.63;;
64674;SDS011;51090;51.512;11.332;2022-10-01T16:44:00;2.85;;;0.73;;
64674;SDS011;51090;51.512;11.332;2022-10-01T16:46:29;3.55;;;1.30;;
64674;SDS011;51090;51.512;11.332;2022-10-01T16:48:55;5.68;;;1.60;;
64674;SDS011;51090;51.512;11.332;2022-10-01T16:51:21;2.97;;;1.00;;
64674;SDS011;51090;51.512;11.332;2022-10-01T16:53:47;3.58;;;1.30;;
64674;SDS011;51090;51.512;11.332;2022-10-01T16:56:13;3.55;;;1.30;;
64674;SDS011;51090;51.512;11.332;2022-10-01T16:58:39;3.60;;;1.60;;
64674;SDS011;51090;51.512;11.332;2022-10-01T17:01:07;5.00;;;2.63;;
64674;SDS011;51090;51.512;11.332;2022-10-01T17:03:37;5.20;;;2.03;;
64674;SDS011;51090;51.512;11.332;2022-10-01T17:06:02;3.78;;;1.73;;
64674;SDS011;51090;51.512;11.332;2022-10-01T17:08:28;3.42;;;1.30;;
64674;SDS011;51090;51.512;11.332;2022-10-01T17:10:55;5.38;;;1.42;;
64674;SDS011;51090;51.512;11.332;2022-10-01T17:13:24;1.65;;;0.90;;
64674;SDS011;51090;51.512;11.332;2022-10-01T17:15:52;1.35;;;0.40;;
64674;SDS011;51090;51.512;11.332;2022-10-01T17:18:18;2.28;;;0.77;;
64674;SDS011;51090;51.512;11.332;2022-10-01T17:20:45;2.13;;;0.60;;
64674;SDS011;51090;51.512;11.332;2022-10-01T17:23:12;0.63;;;0.50;;
64674;SDS011;51090;51.512;11.332;2022-10-01T17:25:39;3.70;;;0.73;;
64674;SDS011;51090;51.512;11.332;2022-10-01T17:28:07;1.05;;;0.50;;
64674;SDS011;51090;51.512;11.332;2022-10-01T17:30:38;1.38;;;0.40;;
64674;SDS011;51090;51.512;11.332;2022-10-01T17:33:06;1.90;;;0.50;;